To NAV CANADA Home Page Login to a new session Search on AWWS site Disclaimer Vers la page française équivalente Tips FAQ What's new on the site To the Forecasts and Observations / NOTAM section To "File a Flight Plan" website Publications and other links Update of the User's profile FIC Telephone Numbers My Weather Data Folder Route Weather Data Regional Weather Data Local Weather Data To the Forecasts and Observations / NOTAM section
Request Generated 03/18/2019 at 20:11:36 UTC . Weather information available at that time is displayed.

METAR/TAF

NORTH BATTLEFORD/SK    (show WxCam)

METAR CYQW 182000Z AUTO 30009KT 9SM CLR 04/M03 A3018 RMK SLP250=
METAR CYQW 181900Z AUTO 30008KT 9SM CLR 03/M03 A3019 RMK SLP250=
METAR CYQW 181800Z AUTO 30009KT 9SM CLR 02/M04 A3018 RMK SLP249=

TAF CYQW 181738Z 1818/1906 31010KT P6SM SKC
FM190300 VRB03KT P6SM SCT100
RMK FCST BASED ON AUTO OBS. NXT FCST BY 190000Z=
Your time UTC time
Weather data provided by Environment Canada and NAV CANADA